createdAt,value
2022-07-29T00:01:20.292Z,99.90
2022-07-29T00:03:49.965Z,99.90
2022-07-29T00:06:18.344Z,99.90
2022-07-29T00:08:46.341Z,99.90
2022-07-29T00:11:14.522Z,99.90
2022-07-29T00:13:44.453Z,99.90
2022-07-29T00:16:16.131Z,99.90
2022-07-29T00:18:44.310Z,99.90
2022-07-29T00:21:13.774Z,99.90
2022-07-29T00:23:42.028Z,99.90
2022-07-29T00:26:09.998Z,99.90
2022-07-29T00:28:38.151Z,99.90
2022-07-29T00:31:06.415Z,99.90
2022-07-29T00:33:34.640Z,99.90
2022-07-29T00:36:01.704Z,99.90
2022-07-29T00:38:31.302Z,99.90
2022-07-29T00:40:59.405Z,99.90
2022-07-29T00:46:15.885Z,99.90
2022-07-29T00:48:43.929Z,99.90
2022-07-29T00:51:12.151Z,99.90
2022-07-29T00:53:41.598Z,99.90
2022-07-29T00:56:09.792Z,99.90
2022-07-29T00:58:37.973Z,99.90
2022-07-29T01:01:06.443Z,99.90
2022-07-29T01:03:34.457Z,99.90
2022-07-29T01:06:02.984Z,99.90
2022-07-29T01:08:31.327Z,99.90
2022-07-29T01:11:02.017Z,99.90
2022-07-29T01:13:31.540Z,99.90
2022-07-29T01:16:04.926Z,99.90
2022-07-29T01:18:37.020Z,99.90
2022-07-29T01:21:37.816Z,99.90
2022-07-29T01:24:25.940Z,99.90
2022-07-29T01:27:01.902Z,99.90
2022-07-29T01:29:40.331Z,99.90
2022-07-29T01:32:22.600Z,99.90
2022-07-29T01:35:02.068Z,99.90
2022-07-29T01:37:45.184Z,99.90
2022-07-29T01:40:22.154Z,99.90
2022-07-29T01:42:53.847Z,99.90
2022-07-29T01:45:28.555Z,99.90
2022-07-29T01:48:02.500Z,99.90
2022-07-29T01:50:35.050Z,99.90
2022-07-29T01:53:07.141Z,99.90
2022-07-29T01:55:40.482Z,99.90
2022-07-29T01:58:10.595Z,99.90
2022-07-29T02:00:41.039Z,99.90
2022-07-29T02:03:15.587Z,99.90
2022-07-29T02:05:45.935Z,99.90
2022-07-29T02:08:16.823Z,99.90
2022-07-29T02:10:46.431Z,99.90
2022-07-29T02:13:16.850Z,99.90
2022-07-29T02:15:48.158Z,99.90
2022-07-29T02:18:19.439Z,99.90
2022-07-29T02:20:54.175Z,99.90
2022-07-29T02:23:24.702Z,99.90
2022-07-29T02:25:57.126Z,99.90
2022-07-29T02:28:33.026Z,99.90
2022-07-29T02:31:04.936Z,99.90
2022-07-29T02:33:34.986Z,99.90
2022-07-29T02:36:04.837Z,99.90
2022-07-29T02:38:52.590Z,99.90
2022-07-29T02:41:24.883Z,99.90
2022-07-29T02:43:57.814Z,99.90
2022-07-29T02:46:31.332Z,99.90
2022-07-29T02:49:06.268Z,99.90
2022-07-29T02:51:44.782Z,99.90
2022-07-29T02:54:21.629Z,99.90
2022-07-29T02:56:53.610Z,99.90
2022-07-29T02:59:25.410Z,99.90
2022-07-29T03:01:57.648Z,99.90
2022-07-29T03:04:29.486Z,99.90
2022-07-29T03:07:01.363Z,99.90
2022-07-29T03:09:30.781Z,99.90
2022-07-29T03:11:59.619Z,99.90
2022-07-29T03:14:29.047Z,99.90
2022-07-29T03:16:59.430Z,99.90
2022-07-29T03:19:28.863Z,99.90
2022-07-29T03:21:58.671Z,99.90
2022-07-29T03:24:28.747Z,99.90
2022-07-29T03:26:57.853Z,99.90
2022-07-29T03:29:33.156Z,99.90
2022-07-29T03:32:08.035Z,99.90
2022-07-29T03:34:38.408Z,99.90
2022-07-29T03:37:08.878Z,99.90
2022-07-29T03:39:41.625Z,99.90
2022-07-29T03:42:13.904Z,99.90
2022-07-29T03:44:44.204Z,99.90
2022-07-29T03:47:16.496Z,99.90
2022-07-29T03:49:46.481Z,99.90
2022-07-29T03:52:15.311Z,99.90
2022-07-29T03:54:43.638Z,99.90
2022-07-29T03:57:13.404Z,99.90
2022-07-29T03:59:42.076Z,99.90
2022-07-29T04:02:14.821Z,99.90
2022-07-29T04:04:43.711Z,99.90
2022-07-29T04:07:14.632Z,99.90
2022-07-29T04:09:43.392Z,99.80
2022-07-29T04:12:11.848Z,99.80
2022-07-29T04:14:40.267Z,99.90
2022-07-29T04:17:08.789Z,99.90
2022-07-29T04:19:38.284Z,99.90
2022-07-29T04:22:06.341Z,99.80
2022-07-29T04:24:34.543Z,99.60
2022-07-29T04:27:02.567Z,99.50
2022-07-29T04:29:31.479Z,99.30
2022-07-29T04:32:00.663Z,99.10
2022-07-29T04:34:28.753Z,99.30
2022-07-29T04:36:58.242Z,98.80
2022-07-29T04:39:29.503Z,98.40
2022-07-29T04:41:58.978Z,98.10
2022-07-29T04:44:28.974Z,97.90
2022-07-29T04:46:58.627Z,97.80
2022-07-29T04:49:27.257Z,97.70
2022-07-29T04:51:55.422Z,97.50
2022-07-29T04:54:25.530Z,97.40
2022-07-29T04:57:01.944Z,97.20
2022-07-29T04:59:29.925Z,97.10
2022-07-29T05:01:58.255Z,96.90
2022-07-29T05:04:26.522Z,96.80
2022-07-29T05:06:54.603Z,96.80
2022-07-29T05:09:24.004Z,96.90
2022-07-29T05:11:52.704Z,96.70
2022-07-29T05:14:21.120Z,96.40
2022-07-29T05:16:52.071Z,96.10
2022-07-29T05:19:20.250Z,95.80
2022-07-29T05:21:48.761Z,95.40
2022-07-29T05:24:17.676Z,95.20
2022-07-29T05:26:47.220Z,95.00
2022-07-29T05:29:43.176Z,94.60
2022-07-29T05:32:03.897Z,94.10
2022-07-29T05:34:32.009Z,93.80
2022-07-29T05:37:00.303Z,93.60
2022-07-29T05:39:47.010Z,93.30
2022-07-29T05:42:17.889Z,93.10
2022-07-29T05:44:45.938Z,93.00
2022-07-29T05:47:14.191Z,92.50
2022-07-29T05:49:42.496Z,92.30
2022-07-29T05:52:10.914Z,92.00
2022-07-29T05:54:39.383Z,91.90
2022-07-29T05:57:07.852Z,91.90
2022-07-29T05:59:39.777Z,91.70
2022-07-29T06:02:07.987Z,91.60
2022-07-29T06:04:36.409Z,91.20
2022-07-29T06:07:05.205Z,91.00
2022-07-29T06:09:36.198Z,90.70
2022-07-29T06:12:05.057Z,90.60
2022-07-29T06:14:33.749Z,90.50
2022-07-29T06:17:03.499Z,89.70
2022-07-29T06:19:31.582Z,90.00
2022-07-29T06:21:59.823Z,89.70
2022-07-29T06:24:28.112Z,89.20
2022-07-29T06:26:57.026Z,88.60
2022-07-29T06:29:25.319Z,88.50
2022-07-29T06:31:53.592Z,88.40
2022-07-29T06:34:22.991Z,87.50
2022-07-29T06:36:52.195Z,87.20
2022-07-29T06:39:22.672Z,86.80
2022-07-29T06:41:51.542Z,85.50
2022-07-29T06:44:20.393Z,85.30
2022-07-29T06:46:50.155Z,84.40
2022-07-29T06:49:18.474Z,83.10
2022-07-29T06:51:48.037Z,82.20
2022-07-29T06:54:16.408Z,81.50
2022-07-29T06:56:44.684Z,80.00
2022-07-29T06:59:13.833Z,79.50
2022-07-29T07:01:43.762Z,77.30
2022-07-29T07:04:14.385Z,75.70
2022-07-29T07:06:42.886Z,74.30
2022-07-29T07:09:12.359Z,72.80
2022-07-29T07:11:40.433Z,71.30
2022-07-29T07:14:08.762Z,69.80
2022-07-29T07:16:36.969Z,66.40
2022-07-29T07:19:05.296Z,64.80
2022-07-29T07:21:35.444Z,61.90
2022-07-29T07:24:04.216Z,58.50
2022-07-29T07:26:33.932Z,50.90
2022-07-29T07:29:02.389Z,48.70
2022-07-29T07:31:30.759Z,45.60
2022-07-29T07:33:59.402Z,41.80
2022-07-29T07:36:27.461Z,40.80
2022-07-29T07:38:55.768Z,37.00
2022-07-29T07:41:24.085Z,36.90
2022-07-29T07:43:53.727Z,34.10
2022-07-29T07:46:21.843Z,33.50
2022-07-29T07:48:50.198Z,32.70
2022-07-29T07:51:18.350Z,31.60
2022-07-29T07:53:50.396Z,30.10
2022-07-29T07:56:18.687Z,29.50
2022-07-29T07:58:50.180Z,29.60
2022-07-29T08:01:22.297Z,30.00
2022-07-29T08:03:50.699Z,30.60
2022-07-29T08:06:18.814Z,31.50
2022-07-29T08:08:46.943Z,32.60
2022-07-29T08:11:15.654Z,32.90
2022-07-29T08:13:44.066Z,33.60
2022-07-29T08:16:16.455Z,34.50
2022-07-29T08:18:47.294Z,35.20
2022-07-29T08:21:16.378Z,34.30
2022-07-29T08:23:59.612Z,33.10
2022-07-29T08:26:29.281Z,33.30
2022-07-29T08:28:57.368Z,33.60
2022-07-29T08:31:25.784Z,31.40
2022-07-29T08:33:57.026Z,29.60
2022-07-29T08:36:25.475Z,28.60
2022-07-29T08:38:53.577Z,27.40
2022-07-29T08:41:22.214Z,26.20
2022-07-29T08:43:52.022Z,26.10
2022-07-29T08:46:20.789Z,26.60
2022-07-29T08:48:49.884Z,26.20
2022-07-29T08:51:21.294Z,26.60
2022-07-29T08:53:51.233Z,26.60
2022-07-29T08:56:21.028Z,26.60
2022-07-29T08:58:52.074Z,26.20
2022-07-29T09:01:36.064Z,25.80
2022-07-29T09:04:13.993Z,25.10
2022-07-29T09:06:46.668Z,25.20
2022-07-29T09:09:15.755Z,24.50
2022-07-29T09:11:44.388Z,24.00
2022-07-29T09:14:14.533Z,24.10
2022-07-29T09:16:53.647Z,24.10
2022-07-29T09:19:27.845Z,24.00
2022-07-29T09:22:03.006Z,23.60
2022-07-29T09:24:46.202Z,23.40
2022-07-29T09:27:22.065Z,23.20
2022-07-29T09:29:58.500Z,22.70
2022-07-29T09:32:27.501Z,23.10
2022-07-29T09:35:17.286Z,22.70
2022-07-29T09:37:47.627Z,23.00
2022-07-29T09:40:18.000Z,23.10
2022-07-29T09:42:46.299Z,23.50
2022-07-29T09:45:15.533Z,23.70
2022-07-29T09:47:47.893Z,24.10
2022-07-29T09:50:16.252Z,24.20
2022-07-29T09:52:50.744Z,24.20
2022-07-29T09:55:20.009Z,24.30
2022-07-29T09:57:49.385Z,24.90
2022-07-29T10:00:19.843Z,24.60
2022-07-29T10:02:49.080Z,25.10
2022-07-29T10:05:23.416Z,25.40
2022-07-29T10:07:54.493Z,25.60
2022-07-29T10:10:28.722Z,25.80
2022-07-29T10:13:01.751Z,25.80
2022-07-29T10:15:38.246Z,25.90
2022-07-29T10:18:06.912Z,25.90
2022-07-29T10:20:35.890Z,26.00
2022-07-29T10:23:05.904Z,25.80
2022-07-29T10:25:34.186Z,26.00
2022-07-29T10:28:02.478Z,26.10
2022-07-29T10:30:30.673Z,26.30
2022-07-29T10:33:19.984Z,26.50
2022-07-29T10:36:09.605Z,26.90
2022-07-29T10:38:57.299Z,27.20
2022-07-29T10:41:47.750Z,27.90
2022-07-29T10:44:23.314Z,28.40
2022-07-29T10:46:53.264Z,28.80
2022-07-29T10:49:25.011Z,29.30
2022-07-29T10:51:55.895Z,28.60
2022-07-29T10:54:46.177Z,28.40
2022-07-29T10:57:53.972Z,28.20
2022-07-29T11:00:33.392Z,27.40
2022-07-29T11:03:04.639Z,27.10
2022-07-29T11:05:55.620Z,25.70
2022-07-29T11:08:27.726Z,25.10
2022-07-29T11:11:44.039Z,24.00
2022-07-29T11:14:18.580Z,23.40
2022-07-29T11:17:07.192Z,23.20
2022-07-29T11:19:40.254Z,22.10
2022-07-29T11:22:11.628Z,21.80
2022-07-29T11:27:40.404Z,21.70
2022-07-29T11:30:13.046Z,21.90
2022-07-29T11:35:38.567Z,21.70
2022-07-29T11:38:27.826Z,22.40
2022-07-29T11:41:25.220Z,22.40
2022-07-29T11:43:54.732Z,22.20
2022-07-29T11:46:50.176Z,22.60
2022-07-29T11:49:32.147Z,22.80
2022-07-29T11:52:12.382Z,22.90
2022-07-29T11:57:37.263Z,23.20
2022-07-29T12:00:12.305Z,23.40
2022-07-29T12:02:43.958Z,23.60
2022-07-29T12:05:36.054Z,23.60
2022-07-29T12:08:20.163Z,23.70
2022-07-29T12:10:49.592Z,23.80
2022-07-29T12:13:19.298Z,24.20
2022-07-29T12:15:55.308Z,24.70
2022-07-29T12:18:25.065Z,25.00
2022-07-29T12:20:59.473Z,25.50
2022-07-29T12:23:34.780Z,25.70
2022-07-29T12:26:07.473Z,26.10
2022-07-29T12:28:40.018Z,26.60
2022-07-29T12:31:15.000Z,27.10
2022-07-29T12:34:04.495Z,27.30
2022-07-29T12:36:32.905Z,27.60
2022-07-29T12:39:01.064Z,27.80
2022-07-29T12:41:30.276Z,27.70
2022-07-29T12:43:58.553Z,28.00
2022-07-29T12:46:26.720Z,28.10
2022-07-29T12:48:57.374Z,27.90
2022-07-29T12:51:33.047Z,28.30
2022-07-29T12:54:07.810Z,28.60
2022-07-29T12:56:44.955Z,28.90
2022-07-29T12:59:15.581Z,29.00
2022-07-29T13:01:43.967Z,29.30
2022-07-29T13:04:12.169Z,29.60
2022-07-29T13:06:46.139Z,29.70
2022-07-29T13:09:21.214Z,29.70
2022-07-29T13:11:51.569Z,30.00
2022-07-29T13:14:33.827Z,30.00
2022-07-29T13:17:03.445Z,30.40
2022-07-29T13:19:39.124Z,30.90
2022-07-29T13:22:08.900Z,31.00
2022-07-29T13:24:48.340Z,31.20
2022-07-29T13:27:17.307Z,31.40
2022-07-29T13:29:46.002Z,32.20
2022-07-29T13:32:14.506Z,31.70
2022-07-29T13:34:42.844Z,31.70
2022-07-29T13:37:12.412Z,31.90
2022-07-29T13:39:40.897Z,32.00
2022-07-29T13:42:10.993Z,32.00
2022-07-29T13:44:39.406Z,32.20
2022-07-29T13:47:07.767Z,32.40
2022-07-29T13:49:36.503Z,33.00
2022-07-29T13:52:08.148Z,33.40
2022-07-29T13:54:41.941Z,33.60
2022-07-29T13:57:11.576Z,33.20
2022-07-29T13:59:40.462Z,33.20
2022-07-29T14:02:08.744Z,33.50
2022-07-29T14:04:37.109Z,33.60
2022-07-29T14:07:08.199Z,33.90
2022-07-29T14:09:41.494Z,34.40
2022-07-29T14:12:10.785Z,34.50
2022-07-29T14:14:39.006Z,35.20
2022-07-29T14:17:08.276Z,35.50
2022-07-29T14:19:38.731Z,35.00
2022-07-29T14:22:08.531Z,34.70
2022-07-29T14:24:39.240Z,34.70
2022-07-29T14:27:08.044Z,34.90
2022-07-29T14:29:38.230Z,34.90
2022-07-29T14:32:07.962Z,34.80
2022-07-29T14:34:36.498Z,34.40
2022-07-29T14:37:06.786Z,34.40
2022-07-29T14:39:42.084Z,34.50
2022-07-29T14:42:13.991Z,34.80
2022-07-29T14:44:42.774Z,34.80
2022-07-29T14:47:11.328Z,34.80
2022-07-29T14:49:39.407Z,34.70
2022-07-29T14:52:07.468Z,34.90
2022-07-29T14:54:35.816Z,34.90
2022-07-29T14:57:03.840Z,35.00
2022-07-29T14:59:33.317Z,35.30
2022-07-29T15:02:02.015Z,35.50
2022-07-29T15:04:31.128Z,36.10
2022-07-29T15:06:59.329Z,36.90
2022-07-29T15:09:27.482Z,36.60
2022-07-29T15:11:55.744Z,36.90
2022-07-29T15:14:24.120Z,37.30
2022-07-29T15:16:53.554Z,37.80
2022-07-29T15:19:21.999Z,38.20
2022-07-29T15:21:50.201Z,38.50
2022-07-29T15:24:18.805Z,38.80
2022-07-29T15:26:46.852Z,39.20
2022-07-29T15:29:15.697Z,39.50
2022-07-29T15:31:44.437Z,40.00
2022-07-29T15:34:14.179Z,40.20
2022-07-29T15:36:51.631Z,40.40
2022-07-29T15:39:22.531Z,40.50
2022-07-29T15:41:51.060Z,40.90
2022-07-29T15:44:19.276Z,41.10
2022-07-29T15:47:05.631Z,41.40
2022-07-29T15:49:47.860Z,41.40
2022-07-29T15:52:25.427Z,41.60
2022-07-29T15:54:55.022Z,41.90
2022-07-29T15:57:23.375Z,42.00
2022-07-29T15:59:51.981Z,42.30
2022-07-29T16:02:20.599Z,42.30
2022-07-29T16:04:50.339Z,42.40
2022-07-29T16:07:18.552Z,42.50
2022-07-29T16:09:52.511Z,42.50
2022-07-29T16:12:21.340Z,42.60
2022-07-29T16:14:51.154Z,42.60
2022-07-29T16:17:19.847Z,42.80
2022-07-29T16:19:48.056Z,42.90
2022-07-29T16:22:17.513Z,43.10
2022-07-29T16:24:45.563Z,43.20
2022-07-29T16:27:14.872Z,43.30
2022-07-29T16:29:42.965Z,43.60
2022-07-29T16:32:11.206Z,43.90
2022-07-29T16:34:39.832Z,44.00
2022-07-29T16:37:07.903Z,44.20
2022-07-29T16:39:37.308Z,44.50
2022-07-29T16:42:06.041Z,44.90
2022-07-29T16:44:35.989Z,45.40
2022-07-29T16:47:05.326Z,45.60
2022-07-29T16:49:33.538Z,46.70
2022-07-29T16:52:01.850Z,46.60
2022-07-29T16:54:30.006Z,47.10
2022-07-29T16:57:02.084Z,47.40
2022-07-29T16:59:30.791Z,47.80
2022-07-29T17:01:59.385Z,48.60
2022-07-29T17:04:30.731Z,49.70
2022-07-29T17:07:00.113Z,50.40
2022-07-29T17:09:29.454Z,51.80
2022-07-29T17:11:58.842Z,52.40
2022-07-29T17:14:30.933Z,53.00
2022-07-29T17:17:02.247Z,53.90
2022-07-29T17:19:33.741Z,55.50
2022-07-29T17:22:10.552Z,55.60
2022-07-29T17:24:42.792Z,56.20
2022-07-29T17:27:12.386Z,56.70
2022-07-29T17:29:40.553Z,57.60
2022-07-29T17:32:09.843Z,58.90
2022-07-29T17:34:38.283Z,60.10
2022-07-29T17:37:07.871Z,61.20
2022-07-29T17:39:36.326Z,62.20
2022-07-29T17:42:04.945Z,63.60
2022-07-29T17:44:36.265Z,65.60
2022-07-29T17:47:05.754Z,67.30
2022-07-29T17:49:36.266Z,69.40
2022-07-29T17:52:06.030Z,71.70
2022-07-29T17:54:34.340Z,76.10
2022-07-29T17:57:02.602Z,77.50
2022-07-29T17:59:30.880Z,79.40
2022-07-29T18:02:00.377Z,80.30
2022-07-29T18:04:29.242Z,81.40
2022-07-29T18:06:57.715Z,82.70
2022-07-29T18:09:26.224Z,84.70
2022-07-29T18:11:54.464Z,86.40
2022-07-29T18:14:22.557Z,87.00
2022-07-29T18:16:50.891Z,88.00
2022-07-29T18:19:20.445Z,89.10
2022-07-29T18:21:55.215Z,90.30
2022-07-29T18:24:25.446Z,90.70
2022-07-29T18:26:54.263Z,91.50
2022-07-29T18:29:22.888Z,91.90
2022-07-29T18:31:51.019Z,92.70
2022-07-29T18:34:20.445Z,93.90
2022-07-29T18:36:48.531Z,94.60
2022-07-29T18:39:20.678Z,94.90
2022-07-29T18:41:51.059Z,94.70
2022-07-29T18:44:21.879Z,94.80
2022-07-29T18:46:52.027Z,94.80
2022-07-29T18:49:21.812Z,94.50
2022-07-29T18:51:51.105Z,94.70
2022-07-29T18:54:19.758Z,94.50
2022-07-29T18:59:35.489Z,94.50
2022-07-29T19:02:04.084Z,94.50
2022-07-29T19:04:33.654Z,94.20
2022-07-29T19:07:02.964Z,94.00
2022-07-29T19:09:31.287Z,93.90
2022-07-29T19:12:03.362Z,93.80
2022-07-29T19:14:51.953Z,93.80
2022-07-29T19:17:20.362Z,93.80
2022-07-29T19:19:53.567Z,93.90
2022-07-29T19:22:22.753Z,94.00
2022-07-29T19:24:50.855Z,94.10
2022-07-29T19:27:19.580Z,94.10
2022-07-29T19:29:47.659Z,94.20
2022-07-29T19:32:24.722Z,94.20
2022-07-29T19:35:12.263Z,94.20
2022-07-29T19:37:40.618Z,94.40
2022-07-29T19:40:10.713Z,94.90
2022-07-29T19:42:38.976Z,94.90
2022-07-29T19:45:08.102Z,94.90
2022-07-29T19:47:36.238Z,94.80
2022-07-29T19:50:06.746Z,94.80
2022-07-29T19:52:35.143Z,94.90
2022-07-29T19:55:07.673Z,95.10
2022-07-29T19:57:40.795Z,95.10
2022-07-29T20:00:11.342Z,95.30
2022-07-29T20:02:40.181Z,95.50
2022-07-29T20:05:10.926Z,95.60
2022-07-29T20:07:40.196Z,95.70
2022-07-29T20:10:10.222Z,96.00
2022-07-29T20:12:38.661Z,96.10
2022-07-29T20:15:08.506Z,96.20
2022-07-29T20:17:39.791Z,96.20
2022-07-29T20:20:10.572Z,96.30
2022-07-29T20:22:38.930Z,96.60
2022-07-29T20:25:09.703Z,96.70
2022-07-29T20:27:40.339Z,96.50
2022-07-29T20:30:13.266Z,96.50
2022-07-29T20:32:41.788Z,96.70
2022-07-29T20:35:12.108Z,96.70
2022-07-29T20:37:52.199Z,96.80
2022-07-29T20:40:25.195Z,96.70
2022-07-29T20:42:53.410Z,96.70
2022-07-29T20:45:21.674Z,96.90
2022-07-29T20:47:50.784Z,96.90
2022-07-29T20:50:23.962Z,96.90
2022-07-29T20:52:52.956Z,96.90
2022-07-29T20:55:21.617Z,96.80
2022-07-29T20:57:49.876Z,96.90
2022-07-29T21:00:18.225Z,97.00
2022-07-29T21:02:47.227Z,96.80
2022-07-29T21:05:15.460Z,96.90
2022-07-29T21:07:44.999Z,96.70
2022-07-29T21:10:14.208Z,96.70
2022-07-29T21:12:43.010Z,96.80
2022-07-29T21:15:13.599Z,96.80
2022-07-29T21:17:46.809Z,96.80
2022-07-29T21:20:16.166Z,96.90
2022-07-29T21:22:46.180Z,96.80
2022-07-29T21:25:14.319Z,96.80
2022-07-29T21:27:59.574Z,97.00
2022-07-29T21:30:28.294Z,96.90
2022-07-29T21:32:56.512Z,96.80
2022-07-29T21:36:02.151Z,96.90
2022-07-29T21:38:16.415Z,96.80
2022-07-29T21:40:44.961Z,97.00
2022-07-29T21:43:13.439Z,97.20
2022-07-29T21:45:41.799Z,97.20
2022-07-29T21:48:09.850Z,97.30
2022-07-29T21:50:37.955Z,97.30
2022-07-29T21:53:06.323Z,97.30
2022-07-29T21:55:36.043Z,97.30
2022-07-29T21:58:04.277Z,97.40
2022-07-29T22:00:33.856Z,97.50
2022-07-29T22:03:02.309Z,97.50
2022-07-29T22:05:30.944Z,97.60
2022-07-29T22:07:59.953Z,97.60
2022-07-29T22:10:29.350Z,97.60
2022-07-29T22:13:00.970Z,97.60
2022-07-29T22:15:29.866Z,97.50
2022-07-29T22:17:58.238Z,97.50
2022-07-29T22:20:26.616Z,97.60
2022-07-29T22:22:55.104Z,97.60
2022-07-29T22:25:23.300Z,97.50
2022-07-29T22:27:51.488Z,97.80
2022-07-29T22:30:21.038Z,97.80
2022-07-29T22:32:49.633Z,97.80
2022-07-29T22:35:18.510Z,97.80
2022-07-29T22:37:46.796Z,98.00
2022-07-29T22:40:14.963Z,98.00
2022-07-29T22:42:43.083Z,98.10
2022-07-29T22:45:11.834Z,98.10
2022-07-29T22:47:48.154Z,98.20
2022-07-29T22:50:17.383Z,98.10
2022-07-29T22:52:45.736Z,98.20
2022-07-29T22:55:13.954Z,98.50
2022-07-29T22:57:42.294Z,98.40
2022-07-29T23:00:11.615Z,98.50
2022-07-29T23:02:41.467Z,98.60
2022-07-29T23:05:11.392Z,98.70
2022-07-29T23:07:39.919Z,98.90
2022-07-29T23:10:09.241Z,99.10
2022-07-29T23:12:37.679Z,99.10
2022-07-29T23:15:08.406Z,99.50
2022-07-29T23:17:37.052Z,99.50
2022-07-29T23:20:10.090Z,99.70
2022-07-29T23:22:39.598Z,99.70
2022-07-29T23:25:09.410Z,99.90
2022-07-29T23:27:51.853Z,99.90
2022-07-29T23:30:22.648Z,99.90
2022-07-29T23:33:06.059Z,99.90
2022-07-29T23:38:34.956Z,99.90
2022-07-29T23:41:09.960Z,99.90
2022-07-29T23:43:42.245Z,99.90
2022-07-29T23:46:23.937Z,99.90
2022-07-29T23:58:54.060Z,99.90
